Time;durP1;ratioP1;P1;durP2;ratioP2;P2;SDS_P1;SDS_P2;PMS_P1;PMS_P2;Temp;Humidity;BMP_temperature;BMP_pressure;BME280_temperature;BME280_humidity;BME280_pressure;Samples;Min_cycle;Max_cycle;Signal;HPM_P1;HPM_P2
2022/05/30 00:00:26;;;;;;;0.80;0.80;;;10.50;99.90;;;;;;5055273;28;20204;-63
2022/05/30 00:02:53;;;;;;;0.70;0.70;;;10.40;99.90;;;;;;5053894;28;20809;-65
2022/05/30 00:05:23;;;;;;;0.60;0.60;;;10.40;99.90;;;;;;5055765;28;20219;-62
2022/05/30 00:07:50;;;;;;;1.17;0.90;;;10.30;99.90;;;;;;5048817;28;20222;-63
2022/05/30 00:10:20;;;;;;;0.60;0.60;;;10.20;99.90;;;;;;5063025;28;20287;-64
2022/05/30 00:12:48;;;;;;;0.70;0.70;;;10.20;99.90;;;;;;5058387;28;20401;-63
2022/05/30 00:15:18;;;;;;;0.70;0.70;;;10.20;99.90;;;;;;5056293;28;20252;-62
2022/05/30 00:17:45;;;;;;;0.63;0.63;;;10.20;99.90;;;;;;5055908;28;20312;-63
2022/05/30 00:20:13;;;;;;;0.70;0.70;;;10.30;99.90;;;;;;5055353;28;20200;-64
2022/05/30 00:22:40;;;;;;;0.70;0.70;;;10.20;99.90;;;;;;5053967;28;20566;-64
2022/05/30 00:25:08;;;;;;;0.70;0.70;;;10.10;99.90;;;;;;5054793;28;20638;-62
2022/05/30 00:27:35;;;;;;;0.70;0.70;;;10.00;99.90;;;;;;5054526;28;20227;-61
2022/05/30 00:30:04;;;;;;;0.80;0.80;;;9.90;99.90;;;;;;5054609;28;20204;-62
2022/05/30 00:32:32;;;;;;;0.90;0.90;;;10.00;99.90;;;;;;5053391;28;20294;-62
2022/05/30 00:34:59;;;;;;;0.75;0.75;;;9.90;99.90;;;;;;5054470;28;20797;-64
2022/05/30 00:37:27;;;;;;;0.80;0.80;;;9.90;99.90;;;;;;5053691;28;20307;-62
2022/05/30 00:39:54;;;;;;;0.70;0.70;;;9.90;99.90;;;;;;5054333;28;20204;-64
2022/05/30 00:42:26;;;;;;;0.73;0.73;;;10.00;99.90;;;;;;5053938;28;20203;-63
2022/05/30 00:44:53;;;;;;;0.60;0.60;;;10.00;99.90;;;;;;5046474;28;20681;-62
2022/05/30 00:47:25;;;;;;;0.70;0.70;;;9.90;99.90;;;;;;5053674;28;20243;-62
2022/05/30 00:49:53;;;;;;;0.60;0.60;;;9.90;99.90;;;;;;5046154;28;20200;-62
2022/05/30 00:52:24;;;;;;;0.75;0.65;;;9.80;99.90;;;;;;5054235;28;20912;-62
2022/05/30 00:54:54;;;;;;;0.85;0.80;;;9.80;99.90;;;;;;5045808;28;20227;-63
2022/05/30 00:57:25;;;;;;;0.70;0.70;;;9.70;99.90;;;;;;5053236;28;20220;-64
2022/05/30 00:59:54;;;;;;;0.65;0.65;;;9.70;99.90;;;;;;5052725;28;20220;-63
2022/05/30 01:02:25;;;;;;;0.80;0.80;;;9.60;99.90;;;;;;5053332;28;20235;-62
2022/05/30 01:07:47;;;;;;;0.43;0.43;;;9.50;99.90;;;;;;5029213;28;20252;-63
2022/05/30 01:10:18;;;;;;;0.60;0.60;;;9.40;99.90;;;;;;5052930;28;20346;-63
2022/05/30 01:12:49;;;;;;;0.80;0.80;;;9.40;99.90;;;;;;5052462;28;20437;-63
2022/05/30 01:15:17;;;;;;;0.60;0.60;;;9.50;99.90;;;;;;5047966;28;20223;-62
2022/05/30 01:17:58;;;;;;;0.80;0.80;;;9.30;99.90;;;;;;5053102;28;20238;-63
2022/05/30 01:20:35;;;;;;;0.80;0.80;;;9.30;99.90;;;;;;5049468;28;20210;-65
2022/05/30 01:23:40;;;;;;;0.77;0.77;;;9.20;99.90;;;;;;5051874;28;20327;-62
2022/05/30 01:26:39;;;;;;;0.73;0.70;;;9.10;99.90;;;;;;5001318;28;20229;-62
2022/05/30 01:29:12;;;;;;;0.80;0.80;;;9.10;99.90;;;;;;5004475;28;20202;-63
2022/05/30 01:31:39;;;;;;;0.75;0.75;;;9.10;99.90;;;;;;5004425;28;20296;-62
2022/05/30 01:34:07;;;;;;;0.60;0.60;;;9.00;99.90;;;;;;5008677;28;20232;-62
2022/05/30 01:36:35;;;;;;;0.70;0.70;;;9.00;99.90;;;;;;5003776;28;20248;-62
2022/05/30 01:39:02;;;;;;;0.50;0.50;;;9.00;99.90;;;;;;5009079;28;20312;-63
2022/05/30 01:41:29;;;;;;;0.80;0.80;;;9.00;99.90;;;;;;5003540;28;20831;-65
2022/05/30 01:43:56;;;;;;;0.70;0.70;;;9.00;99.90;;;;;;5005745;28;20743;-64
2022/05/30 01:46:26;;;;;;;0.65;0.65;;;9.10;99.90;;;;;;5009761;28;20642;-63
2022/05/30 01:48:53;;;;;;;0.60;0.60;;;9.10;99.90;;;;;;5008172;28;20292;-62
2022/05/30 01:51:22;;;;;;;0.80;0.70;;;9.10;99.90;;;;;;5010554;28;20280;-63
2022/05/30 01:53:50;;;;;;;0.60;0.60;;;9.00;99.90;;;;;;5001950;28;20218;-65
2022/05/30 01:56:17;;;;;;;0.70;0.70;;;8.90;99.90;;;;;;5009610;28;20225;-63
2022/05/30 01:58:44;;;;;;;0.70;0.70;;;8.90;99.90;;;;;;5001074;28;20316;-62
2022/05/30 02:01:18;;;;;;;0.80;0.80;;;8.80;99.90;;;;;;5047845;28;20286;-63
2022/05/30 02:03:48;;;;;;;0.93;0.90;;;8.70;99.90;;;;;;5050888;28;20265;-63
2022/05/30 02:06:14;;;;;;;0.60;0.60;;;8.70;99.90;;;;;;5052662;28;20220;-63
2022/05/30 02:08:42;;;;;;;0.85;0.85;;;8.60;99.90;;;;;;5052471;28;20291;-63
2022/05/30 02:11:10;;;;;;;0.88;0.88;;;8.60;99.90;;;;;;5052245;28;20204;-62
2022/05/30 02:13:38;;;;;;;0.80;0.80;;;8.50;99.90;;;;;;5051268;28;20207;-62
2022/05/30 02:18:52;;;;;;;0.70;0.70;;;8.50;99.90;;;;;;5043074;28;20234;-61
2022/05/30 02:21:20;;;;;;;0.60;0.60;;;8.50;99.90;;;;;;5051360;28;20246;-62
2022/05/30 02:23:47;;;;;;;0.77;0.77;;;8.50;99.90;;;;;;5050252;28;20584;-62
2022/05/30 02:26:13;;;;;;;0.60;0.60;;;8.40;99.90;;;;;;5050828;28;20310;-62
2022/05/30 02:28:40;;;;;;;0.70;0.65;;;8.40;99.90;;;;;;5050791;28;20212;-62
2022/05/30 02:31:07;;;;;;;0.90;0.90;;;8.40;99.90;;;;;;5050960;28;20243;-60
2022/05/30 02:39:04;;;;;;;0.70;0.70;;;8.40;99.90;;;;;;5054218;28;20693;-63
2022/05/30 02:41:31;;;;;;;0.73;0.73;;;8.40;99.90;;;;;;5054907;28;20239;-64
2022/05/30 02:43:58;;;;;;;0.80;0.80;;;8.30;99.90;;;;;;5054172;28;20203;-63
2022/05/30 02:46:25;;;;;;;0.55;0.55;;;8.30;99.90;;;;;;5054498;28;20311;-64
2022/05/30 02:48:52;;;;;;;0.70;0.70;;;8.30;99.90;;;;;;5054712;28;20222;-63
2022/05/30 02:51:21;;;;;;;0.80;0.80;;;8.30;99.90;;;;;;5054738;28;20694;-64
2022/05/30 02:53:48;;;;;;;0.70;0.70;;;8.30;99.90;;;;;;5053964;28;20264;-63
2022/05/30 02:56:16;;;;;;;0.70;0.70;;;8.20;99.90;;;;;;5054714;28;20222;-63
2022/05/30 02:58:43;;;;;;;0.63;0.63;;;8.10;99.90;;;;;;5054865;28;20269;-64
2022/05/30 03:01:10;;;;;;;0.80;0.80;;;8.10;99.90;;;;;;5054547;28;20658;-62
2022/05/30 03:03:37;;;;;;;0.70;0.70;;;8.10;99.90;;;;;;5052302;28;20239;-61
2022/05/30 03:06:05;;;;;;;0.70;0.70;;;8.00;99.90;;;;;;5054548;28;20262;-61
2022/05/30 03:08:33;;;;;;;0.90;0.90;;;8.00;99.90;;;;;;5065478;22;20319;-67
2022/05/30 03:11:00;;;;;;;0.90;0.90;;;8.00;99.90;;;;;;5051265;28;20287;-66
2022/05/30 03:13:27;;;;;;;0.90;0.90;;;8.00;99.90;;;;;;5058823;28;20207;-67
2022/05/30 03:15:54;;;;;;;0.63;0.63;;;8.00;99.90;;;;;;5059983;28;20292;-65
2022/05/30 03:18:21;;;;;;;0.80;0.80;;;7.90;99.90;;;;;;5065638;28;20259;-64
2022/05/30 03:20:47;;;;;;;0.70;0.70;;;7.90;99.90;;;;;;5054735;28;20214;-67
2022/05/30 03:23:14;;;;;;;0.70;0.70;;;7.90;99.90;;;;;;5054276;28;20223;-66
2022/05/30 03:25:43;;;;;;;0.60;0.60;;;7.90;99.90;;;;;;5054884;28;20287;-66
2022/05/30 03:28:09;;;;;;;0.85;0.85;;;7.90;99.90;;;;;;5055102;28;20781;-66
2022/05/30 03:30:37;;;;;;;0.88;0.88;;;7.90;99.90;;;;;;5054598;28;20295;-66
2022/05/30 03:33:05;;;;;;;0.70;0.70;;;7.90;99.90;;;;;;5053858;28;20214;-65
2022/05/30 03:35:32;;;;;;;0.70;0.70;;;7.90;99.90;;;;;;5054654;28;20200;-67
2022/05/30 03:37:59;;;;;;;0.70;0.70;;;8.00;99.90;;;;;;5054389;28;20338;-66
2022/05/30 03:40:27;;;;;;;0.60;0.60;;;7.90;99.90;;;;;;5054153;28;20242;-66
2022/05/30 03:42:56;;;;;;;0.70;0.70;;;7.80;99.90;;;;;;5053719;28;20562;-65
2022/05/30 03:45:23;;;;;;;1.10;1.00;;;7.80;99.90;;;;;;5054552;28;20298;-67
2022/05/30 03:47:50;;;;;;;0.60;0.60;;;7.80;99.90;;;;;;5051594;28;20291;-66
2022/05/30 03:50:21;;;;;;;0.80;0.80;;;7.90;99.90;;;;;;5054275;28;20200;-67
2022/05/30 03:52:48;;;;;;;0.70;0.70;;;7.70;99.90;;;;;;5053452;28;20291;-66
2022/05/30 03:55:17;;;;;;;0.60;0.60;;;7.70;99.90;;;;;;5054258;28;20720;-64
2022/05/30 03:57:45;;;;;;;0.77;0.77;;;7.70;99.90;;;;;;5054056;28;20244;-67
2022/05/30 04:00:17;;;;;;;0.80;0.80;;;7.80;99.90;;;;;;5054237;28;20196;-66
2022/05/30 04:02:44;;;;;;;0.70;0.70;;;7.70;99.90;;;;;;5057377;28;20284;-67
2022/05/30 04:05:11;;;;;;;0.70;0.70;;;7.70;99.90;;;;;;5057940;28;20287;-66
2022/05/30 04:07:38;;;;;;;0.77;0.77;;;7.70;99.90;;;;;;5054444;28;20208;-67
2022/05/30 04:10:06;;;;;;;0.70;0.70;;;7.80;99.90;;;;;;5047838;28;20247;-66
2022/05/30 04:12:33;;;;;;;0.60;0.60;;;7.70;99.90;;;;;;5053069;28;20584;-67
2022/05/30 04:15:01;;;;;;;0.70;0.70;;;7.60;99.90;;;;;;5053811;28;20291;-66
2022/05/30 04:17:33;;;;;;;0.60;0.60;;;7.70;99.90;;;;;;5053695;28;20200;-66
2022/05/30 04:20:00;;;;;;;0.60;0.60;;;7.70;99.90;;;;;;5054113;28;20706;-67
2022/05/30 04:22:27;;;;;;;0.80;0.80;;;7.70;99.90;;;;;;5054318;28;20208;-67
2022/05/30 04:24:55;;;;;;;0.80;0.80;;;7.70;99.90;;;;;;5056231;28;20227;-66
2022/05/30 04:27:22;;;;;;;0.70;0.70;;;7.70;99.90;;;;;;5060524;28;20200;-68
2022/05/30 04:29:49;;;;;;;0.70;0.70;;;7.70;99.90;;;;;;5064954;28;20216;-66
2022/05/30 04:32:17;;;;;;;0.93;0.80;;;7.70;99.90;;;;;;5067368;28;20200;-67
2022/05/30 04:34:46;;;;;;;0.80;0.80;;;7.80;99.90;;;;;;5053937;28;20204;-66
2022/05/30 04:37:13;;;;;;;0.80;0.80;;;7.80;99.90;;;;;;5053878;28;20290;-68
2022/05/30 04:39:40;;;;;;;0.70;0.70;;;8.10;99.90;;;;;;5054824;28;20318;-65
2022/05/30 04:42:07;;;;;;;0.77;0.77;;;7.90;99.90;;;;;;5055080;28;20210;-67
2022/05/30 04:44:35;;;;;;;0.80;0.80;;;7.90;99.90;;;;;;5056850;28;20235;-67
2022/05/30 04:47:03;;;;;;;0.70;0.70;;;8.00;99.90;;;;;;5057905;28;20200;-66
2022/05/30 04:49:30;;;;;;;0.90;0.90;;;8.00;99.90;;;;;;5055491;28;20304;-67
2022/05/30 04:51:59;;;;;;;0.55;0.55;;;8.10;99.90;;;;;;5055057;28;20210;-65
2022/05/30 04:54:26;;;;;;;0.87;0.80;;;8.10;99.90;;;;;;5050867;28;20216;-66
2022/05/30 04:56:53;;;;;;;1.10;1.10;;;8.20;99.90;;;;;;5053553;28;20294;-68
2022/05/30 04:59:20;;;;;;;0.77;0.77;;;8.30;99.90;;;;;;5052506;28;20232;-66
2022/05/30 05:01:47;;;;;;;0.70;0.70;;;8.50;99.90;;;;;;5050083;28;20239;-66
2022/05/30 05:04:14;;;;;;;1.08;0.98;;;8.50;99.90;;;;;;5054541;28;20294;-67
2022/05/30 05:06:44;;;;;;;0.73;0.73;;;8.50;99.90;;;;;;5053838;28;20235;-66
2022/05/30 05:09:29;;;;;;;1.50;0.90;;;8.60;99.90;;;;;;5052739;28;20231;-66
2022/05/30 05:11:56;;;;;;;0.90;0.90;;;8.60;99.90;;;;;;5047705;28;20200;-66
2022/05/30 05:14:23;;;;;;;0.90;0.90;;;8.80;99.90;;;;;;5051876;28;20290;-67
2022/05/30 05:16:49;;;;;;;0.80;0.80;;;9.10;99.90;;;;;;5051867;28;20296;-65
2022/05/30 05:19:16;;;;;;;0.77;0.77;;;9.40;99.90;;;;;;5052364;28;20220;-66
2022/05/30 05:21:46;;;;;;;0.80;0.80;;;9.60;99.90;;;;;;5052860;28;20231;-66
2022/05/30 05:24:15;;;;;;;0.70;0.70;;;9.80;99.90;;;;;;5051986;28;20207;-66
2022/05/30 05:26:49;;;;;;;0.80;0.80;;;10.10;99.90;;;;;;5047593;28;20201;-66
2022/05/30 05:29:17;;;;;;;0.80;0.80;;;10.30;99.90;;;;;;5052712;28;20278;-66
2022/05/30 05:31:45;;;;;;;0.73;0.73;;;10.40;99.90;;;;;;5050988;28;20206;-66
2022/05/30 05:34:15;;;;;;;0.80;0.80;;;10.60;99.90;;;;;;5052734;28;20199;-66
2022/05/30 05:36:46;;;;;;;0.80;0.80;;;10.80;99.90;;;;;;5050623;28;20200;-66
2022/05/30 05:39:14;;;;;;;0.73;0.73;;;11.00;99.90;;;;;;5052309;28;20257;-67
2022/05/30 05:41:42;;;;;;;0.70;0.70;;;11.20;99.90;;;;;;5051831;28;20556;-67
2022/05/30 05:44:11;;;;;;;0.77;0.77;;;11.40;99.90;;;;;;5051428;28;20208;-69
2022/05/30 05:46:38;;;;;;;0.88;0.88;;;11.60;99.90;;;;;;5053014;28;20604;-65
2022/05/30 05:49:06;;;;;;;0.98;0.90;;;11.90;99.90;;;;;;5052317;28;20307;-66
2022/05/30 05:51:33;;;;;;;0.90;0.90;;;12.00;99.90;;;;;;5046224;28;20207;-65
2022/05/30 05:54:00;;;;;;;1.20;1.10;;;12.00;99.90;;;;;;5051329;28;20295;-65
2022/05/30 05:56:29;;;;;;;0.95;0.95;;;12.00;99.90;;;;;;5052180;28;20303;-66
2022/05/30 05:58:56;;;;;;;0.80;0.80;;;11.90;99.90;;;;;;5051790;28;20273;-67
2022/05/30 06:01:28;;;;;;;0.87;0.87;;;12.00;99.90;;;;;;5053823;28;20203;-67
2022/05/30 06:03:56;;;;;;;0.90;0.90;;;11.90;99.90;;;;;;5050831;28;20254;-66
2022/05/30 06:06:26;;;;;;;1.00;1.00;;;12.00;99.90;;;;;;5051304;28;20207;-66
2022/05/30 06:08:54;;;;;;;0.93;0.93;;;12.20;99.90;;;;;;5051865;28;20227;-65
2022/05/30 06:11:21;;;;;;;0.90;0.90;;;12.40;99.90;;;;;;5051545;28;20210;-67
2022/05/30 06:13:49;;;;;;;1.30;1.20;;;12.50;99.90;;;;;;5060027;28;20314;-65
2022/05/30 06:16:18;;;;;;;0.90;0.90;;;12.50;99.90;;;;;;5058896;28;20199;-66
2022/05/30 06:18:47;;;;;;;0.90;0.90;;;12.40;99.90;;;;;;5053783;28;20304;-65
2022/05/30 06:21:14;;;;;;;0.98;0.90;;;12.60;99.90;;;;;;5055919;28;20287;-66
2022/05/30 06:23:44;;;;;;;0.80;0.80;;;12.80;99.90;;;;;;5055133;28;20246;-67
2022/05/30 06:26:11;;;;;;;0.88;0.88;;;12.90;99.90;;;;;;5055824;28;20206;-66
2022/05/30 06:28:39;;;;;;;1.25;0.88;;;12.90;99.90;;;;;;5056210;28;20311;-66
2022/05/30 06:31:10;;;;;;;0.68;0.68;;;12.90;99.90;;;;;;5056173;28;20202;-64
2022/05/30 06:33:38;;;;;;;0.90;0.90;;;13.10;99.90;;;;;;5053751;28;20294;-65
2022/05/30 06:36:09;;;;;;;0.80;0.80;;;13.10;99.90;;;;;;5057713;28;20207;-67
2022/05/30 06:38:37;;;;;;;0.75;0.75;;;13.20;99.90;;;;;;5060673;28;20263;-65
2022/05/30 06:41:11;;;;;;;1.03;1.00;;;13.20;99.90;;;;;;5062537;28;20227;-64
2022/05/30 06:43:38;;;;;;;1.00;1.00;;;13.40;99.90;;;;;;5060364;28;20238;-66
2022/05/30 06:46:06;;;;;;;0.90;0.90;;;13.50;99.90;;;;;;5049984;28;20196;-67
2022/05/30 06:48:33;;;;;;;0.90;0.90;;;13.50;99.90;;;;;;5055741;28;20310;-66
2022/05/30 06:51:03;;;;;;;0.90;0.90;;;13.60;99.90;;;;;;5055028;28;20257;-65
2022/05/30 06:53:31;;;;;;;0.80;0.80;;;13.70;99.90;;;;;;5054423;28;20291;-67
2022/05/30 06:55:58;;;;;;;0.93;0.93;;;13.80;99.90;;;;;;5055429;28;20563;-65
2022/05/30 06:58:25;;;;;;;0.80;0.80;;;13.80;99.90;;;;;;5055595;28;20247;-66
2022/05/30 07:00:52;;;;;;;0.90;0.90;;;14.00;99.90;;;;;;5052678;28;20649;-66
2022/05/30 07:03:19;;;;;;;1.08;1.08;;;14.20;99.90;;;;;;5052792;28;20283;-66
2022/05/30 07:05:47;;;;;;;0.85;0.85;;;14.20;99.90;;;;;;5055010;28;20212;-66
2022/05/30 07:08:14;;;;;;;0.77;0.77;;;14.30;99.90;;;;;;5054651;28;20228;-66
2022/05/30 07:10:44;;;;;;;1.13;1.03;;;14.30;99.90;;;;;;5049117;28;20230;-66
2022/05/30 07:13:12;;;;;;;0.88;0.88;;;14.40;99.90;;;;;;5048966;28;20693;-64
2022/05/30 07:15:40;;;;;;;0.80;0.80;;;14.60;99.90;;;;;;5055112;28;20292;-66
2022/05/30 07:18:09;;;;;;;1.00;0.90;;;14.70;99.90;;;;;;5054560;28;20247;-66
2022/05/30 07:20:36;;;;;;;0.80;0.80;;;14.80;99.90;;;;;;5054667;28;20321;-65
2022/05/30 07:23:03;;;;;;;0.73;0.73;;;14.90;99.90;;;;;;5054376;28;20200;-66
2022/05/30 07:25:30;;;;;;;0.93;0.93;;;15.00;99.90;;;;;;5053042;28;20206;-67
2022/05/30 07:27:58;;;;;;;0.90;0.90;;;15.10;99.90;;;;;;5055373;28;20291;-65
2022/05/30 07:30:25;;;;;;;0.80;0.80;;;15.10;99.90;;;;;;5055294;28;20224;-65
2022/05/30 07:32:52;;;;;;;0.82;0.82;;;15.00;99.90;;;;;;5054090;28;20674;-65
2022/05/30 07:35:19;;;;;;;0.80;0.80;;;15.10;99.90;;;;;;5055178;28;21491;-67
2022/05/30 07:37:46;;;;;;;0.90;0.90;;;15.20;99.90;;;;;;5059368;28;20295;-67
2022/05/30 07:40:14;;;;;;;0.70;0.70;;;15.20;99.90;;;;;;5062639;28;20702;-66
2022/05/30 07:42:42;;;;;;;0.90;0.90;;;15.30;99.90;;;;;;5063132;28;20236;-66
2022/05/30 07:45:12;;;;;;;0.80;0.80;;;15.50;99.90;;;;;;5065672;28;20639;-66
2022/05/30 07:47:39;;;;;;;0.82;0.82;;;15.60;99.90;;;;;;5066236;28;20196;-66
2022/05/30 07:50:08;;;;;;;1.90;1.02;;;15.60;99.90;;;;;;5059370;28;20219;-65
2022/05/30 07:52:36;;;;;;;0.90;0.90;;;15.40;99.90;;;;;;5059082;28;20208;-65
2022/05/30 07:55:04;;;;;;;0.98;0.98;;;15.60;99.90;;;;;;5058703;28;20243;-65
2022/05/30 08:00:19;;;;;;;1.03;1.03;;;16.10;99.90;;;;;;5062657;28;20243;-65
2022/05/30 08:02:46;;;;;;;0.80;0.80;;;16.20;99.90;;;;;;5057237;28;20685;-65
2022/05/30 08:05:15;;;;;;;0.90;0.90;;;16.30;99.90;;;;;;5055648;28;20673;-67
2022/05/30 08:07:44;;;;;;;0.98;0.98;;;16.20;99.90;;;;;;5055152;28;20713;-66
2022/05/30 08:10:12;;;;;;;0.98;0.98;;;16.20;99.90;;;;;;5053962;28;20589;-66
2022/05/30 08:12:39;;;;;;;0.90;0.90;;;16.40;99.90;;;;;;5054498;28;20206;-66
2022/05/30 08:15:09;;;;;;;1.10;1.00;;;16.50;99.90;;;;;;5054383;28;20212;-65
2022/05/30 08:17:37;;;;;;;1.00;1.00;;;16.50;99.90;;;;;;5054945;28;20574;-66
2022/05/30 08:20:06;;;;;;;1.00;0.90;;;16.50;99.90;;;;;;5054680;28;20743;-65
2022/05/30 08:22:34;;;;;;;0.88;0.88;;;16.40;99.90;;;;;;5055148;28;20287;-67
2022/05/30 08:25:03;;;;;;;0.93;0.93;;;16.30;99.90;;;;;;5055823;28;20211;-65
2022/05/30 08:27:30;;;;;;;0.93;0.93;;;16.30;99.90;;;;;;5055996;28;20334;-65
2022/05/30 08:29:58;;;;;;;0.98;0.98;;;16.30;99.90;;;;;;5055223;28;20212;-65
2022/05/30 08:32:25;;;;;;;1.25;1.20;;;16.50;99.90;;;;;;5054237;28;20231;-65
2022/05/30 08:34:53;;;;;;;1.10;1.10;;;16.70;99.90;;;;;;5046874;28;20287;-65
2022/05/30 08:37:20;;;;;;;0.90;0.90;;;16.80;99.90;;;;;;5054451;28;20200;-66
2022/05/30 08:42:33;;;;;;;0.80;0.80;;;16.60;99.90;;;;;;5053971;28;20188;-66
2022/05/30 08:45:04;;;;;;;1.10;0.93;;;16.90;99.90;;;;;;5053692;28;20309;-65
2022/05/30 08:47:45;;;;;;;0.90;0.90;;;16.80;99.90;;;;;;5053323;28;20245;-66
2022/05/30 08:50:34;;;;;;;0.98;0.98;;;16.40;99.90;;;;;;5053293;28;20218;-66
2022/05/30 08:53:47;;;;;;;1.00;1.00;;;16.60;99.90;;;;;;5043547;28;20230;-66
2022/05/30 08:56:23;;;;;;;0.80;0.80;;;17.00;99.90;;;;;;5059873;28;20208;-66
2022/05/30 08:59:09;;;;;;;0.93;0.93;;;17.20;99.90;;;;;;5060253;28;20318;-65
2022/05/30 09:01:40;;;;;;;1.00;1.00;;;17.40;99.90;;;;;;5058622;28;20198;-67
2022/05/30 09:04:16;;;;;;;0.90;0.90;;;17.60;99.90;;;;;;5053750;28;20189;-65
2022/05/30 09:06:48;;;;;;;0.90;0.90;;;17.60;99.90;;;;;;5053304;28;20211;-66
2022/05/30 09:09:24;;;;;;;1.00;1.00;;;17.70;99.90;;;;;;5053768;28;20590;-66
2022/05/30 09:11:56;;;;;;;0.98;0.98;;;17.90;99.90;;;;;;5057571;28;20310;-66
2022/05/30 09:14:32;;;;;;;1.10;1.10;;;18.00;99.90;;;;;;5056415;28;20238;-67
2022/05/30 09:17:02;;;;;;;0.90;0.90;;;18.20;99.90;;;;;;5055504;28;20208;-66
2022/05/30 09:19:29;;;;;;;0.85;0.85;;;18.10;99.90;;;;;;5053157;28;20250;-66
2022/05/30 09:22:01;;;;;;;0.80;0.80;;;18.00;99.90;;;;;;5052926;28;20664;-65
2022/05/30 09:24:29;;;;;;;0.77;0.77;;;18.00;99.90;;;;;;5052586;28;20196;-66
2022/05/30 09:26:57;;;;;;;0.80;0.80;;;18.10;99.90;;;;;;5052368;28;20215;-65
2022/05/30 09:29:29;;;;;;;0.80;0.80;;;18.20;99.90;;;;;;5052563;28;20224;-66
2022/05/30 09:32:08;;;;;;;0.82;0.82;;;18.30;99.90;;;;;;5052767;28;20212;-65
2022/05/30 09:34:39;;;;;;;1.00;0.90;;;18.40;99.90;;;;;;5052603;28;20672;-65
2022/05/30 09:37:08;;;;;;;0.85;0.85;;;18.50;99.90;;;;;;5052625;28;20231;-65
2022/05/30 09:39:46;;;;;;;0.80;0.80;;;18.60;99.90;;;;;;5052471;28;20220;-66
2022/05/30 09:42:25;;;;;;;0.90;0.90;;;18.60;99.90;;;;;;5052494;28;20290;-66
2022/05/30 09:44:55;;;;;;;0.77;0.77;;;18.40;99.90;;;;;;5051986;28;20244;-67
2022/05/30 09:47:22;;;;;;;0.90;0.90;;;18.40;99.90;;;;;;5052522;28;20610;-65
2022/05/30 09:49:51;;;;;;;1.70;1.10;;;18.30;99.90;;;;;;5052035;28;20226;-67
2022/05/30 09:52:31;;;;;;;0.73;0.73;;;18.30;99.90;;;;;;5052193;28;20207;-66
2022/05/30 09:54:58;;;;;;;0.82;0.82;;;18.60;99.90;;;;;;5052610;28;20698;-65
2022/05/30 09:57:29;;;;;;;0.93;0.90;;;18.90;99.90;;;;;;5053270;28;20577;-65
2022/05/30 10:00:06;;;;;;;0.80;0.80;;;18.90;99.90;;;;;;5051455;28;20287;-66
2022/05/30 10:02:36;;;;;;;0.82;0.82;;;18.70;99.90;;;;;;5058625;28;20572;-66
2022/05/30 10:05:06;;;;;;;0.88;0.88;;;18.70;99.90;;;;;;5057116;28;20286;-65
2022/05/30 10:07:36;;;;;;;0.73;0.73;;;18.90;99.90;;;;;;5051947;28;20562;-66
2022/05/30 10:10:12;;;;;;;0.90;0.90;;;19.10;99.90;;;;;;5051859;28;20223;-65
2022/05/30 10:12:44;;;;;;;0.80;0.80;;;19.30;99.90;;;;;;5052778;28;20195;-66
2022/05/30 10:15:27;;;;;;;0.90;0.90;;;19.40;99.90;;;;;;5052068;28;20724;-66
2022/05/30 10:17:57;;;;;;;0.70;0.70;;;19.50;99.90;;;;;;5050087;28;20574;-67
2022/05/30 10:20:32;;;;;;;0.70;0.70;;;19.40;99.90;;;;;;5052816;28;20274;-65
2022/05/30 10:28:55;;;;;;;0.80;0.80;;;20.00;99.90;;;;;;5052946;28;20379;-66
2022/05/30 10:31:41;;;;;;;0.90;0.80;;;20.20;99.90;;;;;;5052491;28;20290;-67
2022/05/30 10:34:30;;;;;;;0.90;0.90;;;20.20;99.90;;;;;;5045929;28;20569;-65
2022/05/30 10:37:06;;;;;;;0.85;0.85;;;19.80;99.90;;;;;;5034958;28;20197;-64
2022/05/30 10:39:51;;;;;;;0.80;0.80;;;19.80;99.90;;;;;;5050712;28;20306;-66
2022/05/30 10:42:25;;;;;;;0.80;0.80;;;19.70;99.90;;;;;;5052082;28;20204;-67
2022/05/30 10:44:59;;;;;;;0.52;0.52;;;19.80;99.90;;;;;;5052119;28;20207;-65
2022/05/30 10:47:36;;;;;;;1.05;0.95;;;20.00;99.90;;;;;;5052132;28;20630;-66
2022/05/30 10:50:08;;;;;;;0.80;0.80;;;20.10;99.90;;;;;;5052128;28;20635;-65
2022/05/30 10:52:40;;;;;;;0.80;0.80;;;20.10;99.90;;;;;;5052105;28;20394;-65
2022/05/30 10:55:13;;;;;;;0.60;0.60;;;20.20;99.90;;;;;;5052260;28;20210;-65
2022/05/30 10:57:42;;;;;;;0.80;0.80;;;20.50;99.90;;;;;;5054315;28;20279;-65
2022/05/30 11:00:13;;;;;;;1.00;1.00;;;20.50;99.90;;;;;;5055220;28;20749;-66
2022/05/30 11:02:52;;;;;;;0.85;0.85;;;20.50;99.90;;;;;;5055574;28;20200;-66
2022/05/30 11:05:25;;;;;;;0.93;0.93;;;20.50;99.90;;;;;;5055604;28;20198;-66
2022/05/30 11:07:59;;;;;;;0.70;0.70;;;20.50;99.90;;;;;;5056100;28;20192;-66
2022/05/30 11:10:42;;;;;;;1.13;0.70;;;20.50;99.90;;;;;;5055653;28;20188;-65
2022/05/30 11:13:20;;;;;;;0.52;0.52;;;20.70;99.90;;;;;;5050875;28;20231;-67
2022/05/30 11:15:50;;;;;;;1.02;0.90;;;20.90;99.90;;;;;;5055589;28;20247;-67
2022/05/30 11:18:26;;;;;;;0.60;0.60;;;20.90;99.90;;;;;;5038589;28;20250;-66
2022/05/30 11:21:01;;;;;;;0.70;0.70;;;20.80;99.90;;;;;;5062791;28;20239;-65
2022/05/30 11:23:29;;;;;;;0.70;0.70;;;20.80;99.90;;;;;;5059617;28;20246;-66
2022/05/30 11:26:30;;;;;;;0.70;0.70;;;20.80;99.90;;;;;;5061281;28;20203;-65
2022/05/30 11:29:16;;;;;;;0.90;0.90;;;20.80;99.90;;;;;;5055009;28;20234;-66
2022/05/30 11:31:49;;;;;;;0.65;0.65;;;21.00;99.90;;;;;;5072429;28;20188;-65
2022/05/30 11:34:33;;;;;;;0.88;0.88;;;21.10;99.90;;;;;;5072192;28;20191;-66
2022/05/30 11:37:19;;;;;;;0.57;0.57;;;21.30;99.90;;;;;;5072739;28;20195;-66
2022/05/30 11:39:59;;;;;;;0.98;0.98;;;21.30;99.90;;;;;;5070949;28;20326;-65
2022/05/30 11:42:37;;;;;;;0.70;0.70;;;21.20;99.90;;;;;;5131256;22;1123860;-62
2022/05/30 11:45:15;;;;;;;0.63;0.63;;;21.10;99.90;;;;;;5063815;28;20201;-63
2022/05/30 11:47:53;;;;;;;0.70;0.70;;;20.90;99.90;;;;;;5069094;28;20198;-64
2022/05/30 11:50:29;;;;;;;0.80;0.80;;;20.80;99.90;;;;;;5067335;28;20203;-63
2022/05/30 11:53:21;;;;;;;0.63;0.63;;;20.90;99.90;;;;;;5059773;28;20246;-64
2022/05/30 11:55:56;;;;;;;0.70;0.70;;;21.00;99.90;;;;;;5069939;28;20204;-64
2022/05/30 11:58:37;;;;;;;0.85;0.85;;;21.20;99.90;;;;;;5069291;28;20233;-63
2022/05/30 12:01:06;;;;;;;0.77;0.77;;;21.40;99.90;;;;;;5062493;28;20228;-64
2022/05/30 12:04:17;;;;;;;0.90;0.90;;;21.60;99.90;;;;;;5068678;28;20676;-64
2022/05/30 12:07:10;;;;;;;0.70;0.70;;;21.50;99.40;;;;;;5022446;28;20530;-64
2022/05/30 12:09:59;;;;;;;0.70;0.70;;;21.30;98.40;;;;;;5067343;28;20332;-64
2022/05/30 12:12:43;;;;;;;0.63;0.63;;;20.70;99.20;;;;;;5067921;28;20302;-61
2022/05/30 12:15:49;;;;;;;0.60;0.60;;;20.70;99.50;;;;;;5064157;28;20299;-63
2022/05/30 12:24:37;;;;;;;0.70;0.70;;;20.70;98.50;;;;;;5068391;28;20579;-63
2022/05/30 12:27:32;;;;;;;0.70;0.70;;;20.90;98.90;;;;;;5069271;28;20207;-63
2022/05/30 12:30:00;;;;;;;0.70;0.70;;;21.30;99.40;;;;;;5065073;28;20291;-63
2022/05/30 12:32:44;;;;;;;0.80;0.80;;;21.60;99.00;;;;;;5071077;28;20226;-62
2022/05/30 12:35:21;;;;;;;0.60;0.60;;;21.50;97.90;;;;;;5066097;28;20192;-64
2022/05/30 12:37:51;;;;;;;0.82;0.82;;;21.50;98.60;;;;;;5073199;28;20199;-64
2022/05/30 12:40:36;;;;;;;0.80;0.80;;;21.60;97.60;;;;;;5062710;28;20219;-64
2022/05/30 12:43:13;;;;;;;0.70;0.70;;;21.60;98.00;;;;;;5051741;28;20275;-64
2022/05/30 12:45:44;;;;;;;0.80;0.80;;;21.70;97.90;;;;;;5062763;28;20605;-64
2022/05/30 12:48:17;;;;;;;0.80;0.80;;;21.90;98.00;;;;;;5058440;28;20326;-64
2022/05/30 12:51:12;;;;;;;0.60;0.60;;;21.90;97.90;;;;;;5050540;28;20212;-63
2022/05/30 12:54:21;;;;;;;0.70;0.70;;;22.00;97.50;;;;;;5050878;28;20244;-62
2022/05/30 12:57:11;;;;;;;0.95;0.70;;;22.10;97.50;;;;;;5055576;28;20197;-64
2022/05/30 13:00:15;;;;;;;0.70;0.70;;;22.00;97.00;;;;;;5057625;28;20860;-62
2022/05/30 13:03:15;;;;;;;1.00;1.00;;;21.80;96.40;;;;;;5019080;28;20241;-63
2022/05/30 13:06:00;;;;;;;0.77;0.77;;;21.90;96.30;;;;;;5044984;28;20316;-63
2022/05/30 13:08:51;;;;;;;0.55;0.55;;;22.00;96.40;;;;;;5058866;28;20606;-64
2022/05/30 13:11:37;;;;;;;0.70;0.70;;;22.00;96.30;;;;;;5054313;28;20692;-63
2022/05/30 13:14:11;;;;;;;0.90;0.90;;;21.90;96.10;;;;;;5047842;28;20577;-62
2022/05/30 13:16:42;;;;;;;0.75;0.75;;;21.90;96.50;;;;;;5057703;28;20231;-64
2022/05/30 13:19:12;;;;;;;0.75;0.75;;;22.00;96.60;;;;;;5052445;28;20203;-64
2022/05/30 13:21:44;;;;;;;1.00;0.70;;;22.20;95.60;;;;;;5065396;28;20295;-63
2022/05/30 13:24:37;;;;;;;0.60;0.60;;;22.30;95.40;;;;;;5058121;28;20239;-63
2022/05/30 13:27:04;;;;;;;0.63;0.63;;;22.20;96.10;;;;;;5046011;28;20294;-63
2022/05/30 13:29:33;;;;;;;0.80;0.80;;;22.10;95.80;;;;;;5046867;28;20286;-63
2022/05/30 13:32:01;;;;;;;0.60;0.60;;;22.10;95.50;;;;;;5048241;28;20269;-62
2022/05/30 13:34:32;;;;;;;0.70;0.70;;;22.20;95.90;;;;;;5047402;28;20236;-64
2022/05/30 13:37:02;;;;;;;0.73;0.73;;;22.20;95.60;;;;;;5055775;28;20195;-62
2022/05/30 13:39:29;;;;;;;0.75;0.75;;;22.30;95.20;;;;;;5054566;28;20197;-63
2022/05/30 13:41:57;;;;;;;0.80;0.80;;;22.30;95.70;;;;;;5063383;28;20230;-63